Time;durP1;ratioP1;P1;durP2;ratioP2;P2;SDS_P1;SDS_P2;PMS_P1;PMS_P2;Temp;Humidity;BMP_temperature;BMP_pressure;BME280_temperature;BME280_humidity;BME280_pressure;Samples;Min_cycle;Max_cycle;Signal;HPM_P1;HPM_P2
2022/06/03 00:02:16;;;;;;;;;;;14.60;66.30;;;;;;4917345;29;20063;-76
2022/06/03 00:04:44;;;;;;;6.60;4.35;;;14.60;66.10;;;;;;4916807;29;19923;-76
2022/06/03 00:07:17;;;;;;;4.00;3.70;;;14.60;65.90;;;;;;4916306;29;20494;-76
2022/06/03 00:09:54;;;;;;;5.22;4.10;;;14.60;65.80;;;;;;4915809;29;20411;-77
2022/06/03 00:12:57;;;;;;;6.85;4.05;;;14.50;65.70;;;;;;4916864;29;20547;-77
2022/06/03 00:15:56;;;;;;;5.13;3.75;;;14.50;65.50;;;;;;4916225;29;20064;-75
2022/06/03 00:18:48;;;;;;;5.07;4.03;;;14.50;65.40;;;;;;4916392;29;20048;-79
2022/06/03 00:21:45;;;;;;;4.72;4.20;;;14.50;65.40;;;;;;4900680;29;20072;-75
2022/06/03 00:24:19;;;;;;;4.88;4.05;;;14.40;65.40;;;;;;4892040;29;20192;-75
2022/06/03 00:26:46;;;;;;;7.22;4.50;;;14.50;65.30;;;;;;4900243;29;20051;-76
2022/06/03 00:29:30;;;;;;;5.32;4.30;;;14.40;65.20;;;;;;4956463;28;20202;-77
2022/06/03 00:32:25;;;;;;;4.93;4.43;;;14.40;65.30;;;;;;4969220;28;20051;-78
2022/06/03 00:35:03;;;;;;;5.35;3.55;;;14.30;65.30;;;;;;4948887;28;20043;-77
2022/06/03 00:37:41;;;;;;;5.35;4.35;;;14.30;65.20;;;;;;4976507;28;20073;-77
2022/06/03 00:40:28;;;;;;;4.93;4.05;;;14.30;65.20;;;;;;4975951;28;20050;-75
2022/06/03 00:43:01;;;;;;;5.88;4.18;;;14.30;65.20;;;;;;4976382;28;20063;-76
2022/06/03 00:45:41;;;;;;;4.85;4.03;;;14.20;65.20;;;;;;4975537;28;20050;-76
2022/06/03 00:48:27;;;;;;;5.30;4.03;;;14.20;65.30;;;;;;4975569;28;20054;-76
2022/06/03 00:51:18;;;;;;;6.32;4.32;;;14.20;65.20;;;;;;4975172;28;20035;-76
2022/06/03 00:54:07;;;;;;;4.18;3.78;;;14.10;65.20;;;;;;4975649;28;20058;-76
2022/06/03 00:56:53;;;;;;;4.68;3.80;;;14.10;65.30;;;;;;4939732;29;20062;-76
2022/06/03 00:59:44;;;;;;;5.85;3.90;;;14.00;65.40;;;;;;4974680;28;20050;-76
2022/06/03 01:02:28;;;;;;;4.45;3.78;;;14.00;65.30;;;;;;4974546;28;20059;-76
2022/06/03 01:05:03;;;;;;;4.95;3.72;;;14.00;65.60;;;;;;4952488;28;20046;-78
2022/06/03 01:07:41;;;;;;;6.18;4.00;;;13.90;65.50;;;;;;4961392;28;20496;-77
2022/06/03 01:10:46;;;;;;;4.97;4.10;;;13.90;65.70;;;;;;4956721;28;20055;-76
2022/06/03 01:13:40;;;;;;;7.68;4.05;;;13.80;65.80;;;;;;4966137;28;20050;-76
2022/06/03 01:16:26;;;;;;;4.93;3.75;;;13.80;65.70;;;;;;4958841;28;20047;-75
2022/06/03 01:19:20;;;;;;;8.88;4.15;;;13.80;65.70;;;;;;4968967;28;20397;-77
2022/06/03 01:22:34;;;;;;;4.85;3.85;;;13.80;65.90;;;;;;4958027;28;20059;-76
2022/06/03 01:25:10;;;;;;;5.32;4.30;;;13.70;66.00;;;;;;4973417;28;20058;-76
2022/06/03 01:28:13;;;;;;;5.05;4.30;;;13.70;66.10;;;;;;4970491;28;20062;-76
2022/06/03 01:31:22;;;;;;;8.00;3.70;;;13.70;66.20;;;;;;4964789;28;20054;-77
2022/06/03 01:34:00;;;;;;;5.78;4.15;;;13.60;66.20;;;;;;4953092;28;20055;-78
2022/06/03 01:36:55;;;;;;;4.05;3.75;;;13.60;66.30;;;;;;4974881;28;20066;-77
2022/06/03 01:39:42;;;;;;;4.13;3.50;;;13.60;66.30;;;;;;4974095;28;20059;-77
2022/06/03 01:42:32;;;;;;;6.88;4.13;;;13.50;66.40;;;;;;4974838;28;20411;-77
2022/06/03 01:45:37;;;;;;;4.07;3.63;;;13.50;66.40;;;;;;4975047;28;20093;-77
2022/06/03 01:48:06;;;;;;;4.97;3.92;;;13.50;66.50;;;;;;4966716;28;20664;-76
2022/06/03 01:50:40;;;;;;;5.40;4.07;;;13.40;66.50;;;;;;4939395;28;20046;-76
2022/06/03 01:53:16;;;;;;;6.95;3.80;;;13.40;66.70;;;;;;4974744;28;20049;-76
2022/06/03 01:55:52;;;;;;;5.18;3.67;;;13.30;66.80;;;;;;4974686;28;20496;-76
2022/06/03 01:58:38;;;;;;;4.43;3.25;;;13.30;66.80;;;;;;4956477;28;20046;-76
2022/06/03 02:01:24;;;;;;;5.25;3.88;;;13.30;66.90;;;;;;4955802;29;20055;-76
2022/06/03 02:04:22;;;;;;;3.90;3.25;;;13.30;66.90;;;;;;4969416;28;20047;-77
2022/06/03 02:07:11;;;;;;;5.03;3.65;;;13.30;66.90;;;;;;4957695;28;20393;-77
2022/06/03 02:10:01;;;;;;;4.40;3.55;;;13.30;66.90;;;;;;4973552;28;20038;-77
2022/06/03 02:12:54;;;;;;;4.13;3.67;;;13.30;66.90;;;;;;4973161;28;20055;-76
2022/06/03 02:16:03;;;;;;;4.88;3.30;;;13.30;66.90;;;;;;4964993;28;20057;-75
2022/06/03 02:18:36;;;;;;;3.30;2.97;;;13.30;67.10;;;;;;4913706;29;20063;-77
2022/06/03 02:21:15;;;;;;;4.53;3.40;;;13.20;67.00;;;;;;4913310;29;20063;-76
2022/06/03 02:24:14;;;;;;;4.05;3.47;;;13.20;67.30;;;;;;4913932;29;20067;-76
2022/06/03 02:27:19;;;;;;;3.38;2.97;;;13.20;67.30;;;;;;4912479;29;20044;-76
2022/06/03 02:30:29;;;;;;;3.67;3.22;;;13.10;67.10;;;;;;4895634;29;20491;-77
2022/06/03 02:33:02;;;;;;;4.32;3.03;;;13.10;67.10;;;;;;4910241;29;20048;-77
2022/06/03 02:35:41;;;;;;;3.95;3.30;;;13.10;67.00;;;;;;4912951;29;20528;-76
2022/06/03 02:38:22;;;;;;;3.90;3.08;;;13.10;67.00;;;;;;4913803;29;20063;-76
2022/06/03 02:40:55;;;;;;;5.43;3.47;;;13.10;67.10;;;;;;4908946;29;20044;-77
2022/06/03 02:44:00;;;;;;;3.85;3.33;;;13.00;67.10;;;;;;4911791;29;20067;-76
2022/06/03 02:46:46;;;;;;;3.95;3.30;;;13.00;67.10;;;;;;4913111;29;20059;-76
2022/06/03 02:49:37;;;;;;;5.65;3.42;;;13.00;67.00;;;;;;4912384;29;20438;-77
2022/06/03 02:52:13;;;;;;;5.05;3.55;;;13.00;67.00;;;;;;4911589;29;20052;-76
2022/06/03 02:54:59;;;;;;;4.97;3.83;;;13.00;67.10;;;;;;4935520;28;20165;-76
2022/06/03 02:57:47;;;;;;;3.83;3.42;;;13.00;67.00;;;;;;4971816;28;20042;-76
2022/06/03 03:00:37;;;;;;;3.45;3.15;;;13.00;67.00;;;;;;4972486;28;20059;-77
2022/06/03 03:03:20;;;;;;;5.03;3.40;;;13.00;67.10;;;;;;4953741;28;20082;-76
2022/06/03 03:06:22;;;;;;;4.88;3.00;;;13.00;67.30;;;;;;4952643;28;20412;-76
2022/06/03 03:08:57;;;;;;;3.75;3.30;;;13.00;67.50;;;;;;4973545;28;20046;-76
2022/06/03 03:12:02;;;;;;;3.50;3.20;;;12.90;67.50;;;;;;4972732;28;20078;-76
2022/06/03 03:14:32;;;;;;;6.65;3.45;;;12.90;67.80;;;;;;4938190;28;20051;-77
2022/06/03 03:17:08;;;;;;;4.20;3.80;;;12.90;67.90;;;;;;4956382;28;20049;-77
2022/06/03 03:20:09;;;;;;;5.13;3.63;;;12.90;68.20;;;;;;4956585;28;20062;-77
2022/06/03 03:22:46;;;;;;;5.47;4.00;;;12.90;68.40;;;;;;4971112;28;20046;-77
2022/06/03 03:25:33;;;;;;;4.97;4.03;;;12.80;68.60;;;;;;4970716;28;20054;-76
2022/06/03 03:28:19;;;;;;;5.43;4.30;;;12.80;68.80;;;;;;4963774;28;20050;-77
2022/06/03 03:31:23;;;;;;;5.32;4.03;;;12.70;69.30;;;;;;4971460;28;20062;-77
2022/06/03 03:34:15;;;;;;;6.03;4.68;;;12.70;69.80;;;;;;4969092;28;20058;-76
2022/06/03 03:36:49;;;;;;;4.60;4.20;;;12.60;70.00;;;;;;4971739;28;20484;-77
2022/06/03 03:39:41;;;;;;;7.05;4.57;;;12.60;70.20;;;;;;4972595;28;20412;-77
2022/06/03 03:42:09;;;;;;;5.18;4.22;;;12.50;70.50;;;;;;4954377;28;20057;-77
2022/06/03 03:44:50;;;;;;;4.90;4.32;;;12.50;70.40;;;;;;4971677;28;20514;-77
2022/06/03 03:47:44;;;;;;;4.50;4.10;;;12.40;70.60;;;;;;4972286;28;20046;-77
2022/06/03 03:50:39;;;;;;;5.85;4.78;;;12.40;70.90;;;;;;4968813;28;20050;-74
2022/06/03 03:53:29;;;;;;;8.07;4.47;;;12.30;71.20;;;;;;4950826;28;20113;-79
2022/06/03 03:56:19;;;;;;;6.05;4.75;;;12.30;71.50;;;;;;4971117;28;20508;-76
2022/06/03 03:58:56;;;;;;;7.45;4.50;;;12.30;71.70;;;;;;4965061;28;20357;-76
2022/06/03 04:01:51;;;;;;;4.20;3.90;;;12.30;71.70;;;;;;4953802;28;20043;-76
2022/06/03 04:04:49;;;;;;;6.85;4.53;;;12.20;72.10;;;;;;4954902;28;20046;-76
2022/06/03 04:07:33;;;;;;;6.00;4.55;;;12.20;72.20;;;;;;4952940;28;20058;-76
2022/06/03 04:10:39;;;;;;;;;;;12.20;72.30;;;;;;4962957;28;20198;-76
2022/06/03 04:13:19;;;;;;;7.43;4.82;;;12.10;72.40;;;;;;4949434;28;19922;-76
2022/06/03 04:16:23;;;;;;;6.78;5.47;;;12.10;72.50;;;;;;4933420;29;20055;-77
2022/06/03 04:19:09;;;;;;;6.50;5.30;;;12.00;73.00;;;;;;4940891;29;20183;-76
2022/06/03 04:21:45;;;;;;;5.93;5.07;;;12.00;73.20;;;;;;4950404;28;20047;-76
2022/06/03 04:24:37;;;;;;;4.85;4.43;;;12.00;73.50;;;;;;4947116;28;20078;-77
2022/06/03 04:27:37;;;;;;;5.55;4.70;;;12.00;73.60;;;;;;4949312;28;20047;-76
2022/06/03 04:30:39;;;;;;;5.20;4.60;;;12.00;73.80;;;;;;4949809;29;20059;-76
2022/06/03 04:33:37;;;;;;;5.70;4.80;;;11.90;73.90;;;;;;4949799;28;20055;-77
2022/06/03 04:36:25;;;;;;;5.90;4.55;;;11.90;73.90;;;;;;4950157;28;20071;-77
2022/06/03 04:39:14;;;;;;;5.75;4.82;;;12.00;73.90;;;;;;4949568;28;20051;-75
2022/06/03 04:42:06;;;;;;;6.22;4.43;;;11.90;73.90;;;;;;4949628;28;20059;-75
2022/06/03 04:45:06;;;;;;;6.30;4.85;;;12.00;74.00;;;;;;4956032;28;20051;-76
2022/06/03 04:47:52;;;;;;;6.72;4.97;;;12.00;73.90;;;;;;4969304;28;20051;-76
2022/06/03 04:50:53;;;;;;;7.35;5.28;;;12.00;74.00;;;;;;4950042;28;20035;-75
2022/06/03 04:53:27;;;;;;;6.28;5.13;;;12.00;74.00;;;;;;4942207;28;20043;-76
2022/06/03 04:56:32;;;;;;;5.60;5.05;;;12.10;73.80;;;;;;4974726;28;20043;-75
2022/06/03 04:59:02;;;;;;;6.65;5.63;;;12.10;73.90;;;;;;4974773;28;20055;-76
2022/06/03 05:02:02;;;;;;;9.10;5.53;;;12.10;73.80;;;;;;4974234;28;20054;-76
2022/06/03 05:05:07;;;;;;;8.68;5.40;;;12.20;73.90;;;;;;4968390;28;20051;-76
2022/06/03 05:08:00;;;;;;;6.90;5.63;;;12.20;73.80;;;;;;4969036;28;20054;-76
2022/06/03 05:11:05;;;;;;;6.68;5.80;;;12.20;73.70;;;;;;4945558;28;20043;-77
2022/06/03 05:13:48;;;;;;;6.28;5.32;;;12.10;73.70;;;;;;4957841;28;20062;-77
2022/06/03 05:16:32;;;;;;;7.17;5.10;;;12.20;73.60;;;;;;4974958;28;20082;-77
2022/06/03 05:18:59;;;;;;;6.65;5.60;;;12.20;73.60;;;;;;4974618;28;20034;-77
2022/06/03 05:21:54;;;;;;;6.50;5.63;;;12.20;73.50;;;;;;4941958;28;20598;-77
2022/06/03 05:24:40;;;;;;;7.40;5.32;;;12.20;73.50;;;;;;4958933;28;20058;-76
2022/06/03 05:27:42;;;;;;;6.53;4.93;;;12.20;73.40;;;;;;4972535;28;20057;-76
2022/06/03 05:30:13;;;;;;;6.47;4.57;;;12.30;73.40;;;;;;4972055;28;20050;-76
2022/06/03 05:32:49;;;;;;;10.57;5.85;;;12.30;73.20;;;;;;4970867;28;20534;-76
2022/06/03 05:35:33;;;;;;;6.93;5.80;;;12.30;73.10;;;;;;4957307;28;20055;-77
2022/06/03 05:38:16;;;;;;;7.35;6.15;;;12.30;73.00;;;;;;4975045;28;20039;-76
2022/06/03 05:42:23;;;;;;;9.18;6.40;;;12.40;72.90;;;;;;4973180;28;20058;-75
2022/06/03 05:44:34;;;;;;;8.90;6.50;;;12.50;72.70;;;;;;4956114;28;20054;-75
2022/06/03 05:47:06;;;;;;;9.23;6.72;;;12.50;72.30;;;;;;4945148;28;20489;-76
2022/06/03 05:49:49;;;;;;;10.32;6.68;;;12.60;72.10;;;;;;4956768;28;20051;-76
2022/06/03 05:52:35;;;;;;;13.20;7.37;;;12.70;71.70;;;;;;4972915;28;20070;-75
2022/06/03 05:55:10;;;;;;;9.18;6.38;;;12.70;71.50;;;;;;4971772;28;20054;-76
2022/06/03 05:57:50;;;;;;;8.32;6.55;;;12.80;71.20;;;;;;4959923;28;20054;-75
2022/06/03 06:00:41;;;;;;;7.70;6.18;;;12.80;71.00;;;;;;4974018;28;20065;-75
2022/06/03 06:03:08;;;;;;;10.95;6.30;;;12.90;70.60;;;;;;4972535;28;20050;-76
2022/06/03 06:06:11;;;;;;;8.82;5.38;;;12.90;70.40;;;;;;4973789;28;20058;-76
2022/06/03 06:09:16;;;;;;;6.43;5.32;;;13.00;70.10;;;;;;4894689;29;20049;-76
2022/06/03 06:11:58;;;;;;;6.57;4.65;;;13.00;69.70;;;;;;4892448;29;20048;-76
2022/06/03 06:14:47;;;;;;;7.00;5.00;;;13.10;69.40;;;;;;4894754;29;20056;-75
2022/06/03 06:17:39;;;;;;;9.95;5.10;;;13.10;69.00;;;;;;4895832;29;20052;-75
2022/06/03 06:20:29;;;;;;;4.85;4.32;;;13.30;68.70;;;;;;4883794;29;20161;-75
2022/06/03 06:23:08;;;;;;;4.75;4.35;;;13.30;68.30;;;;;;4892526;29;20502;-78
2022/06/03 06:25:45;;;;;;;5.00;4.45;;;13.50;68.00;;;;;;4894013;29;20065;-77
2022/06/03 06:28:36;;;;;;;5.95;4.45;;;13.80;68.00;;;;;;4893460;29;20052;-77
2022/06/03 06:31:29;;;;;;;5.05;4.53;;;14.00;67.70;;;;;;4878660;29;20442;-77
2022/06/03 06:34:15;;;;;;;6.63;4.95;;;14.30;67.00;;;;;;4882982;29;20060;-77
2022/06/03 06:37:17;;;;;;;9.23;4.60;;;14.30;66.40;;;;;;4891160;29;20056;-77
2022/06/03 06:40:08;;;;;;;4.57;4.18;;;14.40;65.80;;;;;;4885406;29;20064;-77
2022/06/03 06:42:44;;;;;;;7.13;5.15;;;14.40;65.60;;;;;;4892417;29;20049;-76
2022/06/03 06:45:46;;;;;;;6.60;4.72;;;14.60;65.40;;;;;;4908870;28;20051;-76
2022/06/03 06:48:22;;;;;;;8.25;5.15;;;14.60;65.20;;;;;;4962716;28;20070;-76
2022/06/03 06:50:53;;;;;;;7.50;5.20;;;14.60;64.90;;;;;;4972140;28;20051;-76
2022/06/03 06:53:36;;;;;;;5.88;4.85;;;14.70;64.60;;;;;;4969509;28;20043;-77
2022/06/03 06:56:43;;;;;;;6.07;5.53;;;14.70;64.50;;;;;;4967817;28;20062;-77
2022/06/03 06:59:19;;;;;;;6.20;5.60;;;14.70;64.30;;;;;;4967087;28;20050;-77
2022/06/03 07:02:02;;;;;;;8.15;5.68;;;14.80;64.10;;;;;;4955521;28;20034;-76
2022/06/03 07:04:41;;;;;;;9.48;6.07;;;14.80;63.80;;;;;;4955756;28;20404;-76
2022/06/03 07:07:14;;;;;;;6.80;6.10;;;14.80;63.50;;;;;;4958756;28;20043;-77
2022/06/03 07:09:49;;;;;;;;;;;14.80;63.50;;;;;;4954683;28;20050;-77
2022/06/03 07:12:24;;;;;;;7.38;5.80;;;14.80;63.40;;;;;;4954016;28;19925;-76
2022/06/03 07:15:25;;;;;;;6.47;5.80;;;14.90;63.30;;;;;;4966307;28;20043;-77
2022/06/03 07:21:18;;;;;;;10.75;5.95;;;14.90;63.20;;;;;;4959730;28;20049;-77
2022/06/03 07:23:50;;;;;;;8.18;6.28;;;15.00;63.30;;;;;;4954778;28;20046;-76
2022/06/03 07:26:36;;;;;;;9.25;6.22;;;14.90;63.10;;;;;;4956324;28;20055;-76
2022/06/03 07:29:19;;;;;;;8.50;6.03;;;14.90;63.20;;;;;;4955022;28;20062;-77
2022/06/03 07:32:15;;;;;;;9.27;6.38;;;14.90;63.30;;;;;;4972045;28;20054;-77
2022/06/03 07:35:07;;;;;;;10.60;5.85;;;14.90;63.20;;;;;;4967674;28;20050;-77
2022/06/03 07:37:52;;;;;;;7.35;6.25;;;15.00;63.20;;;;;;4938865;28;20397;-76
2022/06/03 07:40:38;;;;;;;8.00;5.93;;;15.10;62.30;;;;;;4954098;28;20408;-77
2022/06/03 07:43:09;;;;;;;9.18;6.07;;;15.10;62.20;;;;;;4969852;28;20051;-77
2022/06/03 07:45:50;;;;;;;10.00;6.20;;;15.20;62.30;;;;;;4967247;28;20050;-76
2022/06/03 07:48:23;;;;;;;12.05;6.32;;;15.30;62.20;;;;;;4971006;28;20051;-77
2022/06/03 07:51:07;;;;;;;11.75;5.78;;;15.30;62.00;;;;;;4970155;28;20058;-77
2022/06/03 07:53:57;;;;;;;7.43;6.60;;;15.40;61.50;;;;;;4970826;28;20211;-77
2022/06/03 07:56:29;;;;;;;10.13;6.78;;;15.50;61.00;;;;;;4969769;28;20050;-77
2022/06/03 07:59:03;;;;;;;7.18;6.40;;;15.60;60.80;;;;;;4969838;28;20047;-77
2022/06/03 08:01:36;;;;;;;9.30;6.72;;;15.70;60.50;;;;;;4968877;28;20508;-77
2022/06/03 08:04:05;;;;;;;8.65;6.18;;;15.60;60.40;;;;;;4937562;28;20062;-77
2022/06/03 08:12:28;;;;;;;9.05;6.43;;;15.70;60.40;;;;;;4971684;28;20043;-77
2022/06/03 08:14:57;;;;;;;8.00;6.45;;;15.80;60.10;;;;;;4967934;28;20047;-77
2022/06/03 08:17:25;;;;;;;9.88;6.05;;;15.90;59.90;;;;;;4953188;28;20066;-77
2022/06/03 08:19:54;;;;;;;10.75;6.03;;;16.00;59.90;;;;;;4974447;28;20043;-77
2022/06/03 08:22:24;;;;;;;10.43;5.70;;;16.20;59.90;;;;;;4974677;28;20069;-77
2022/06/03 08:24:56;;;;;;;6.95;5.60;;;16.30;59.60;;;;;;4956743;28;20489;-77
2022/06/03 08:27:29;;;;;;;6.60;4.95;;;16.30;59.20;;;;;;4975111;28;20409;-77
2022/06/03 08:29:59;;;;;;;9.52;5.22;;;16.40;59.00;;;;;;4972036;28;20074;-77
2022/06/03 08:32:40;;;;;;;7.82;5.45;;;16.50;58.20;;;;;;4958344;28;20535;-76
2022/06/03 08:35:15;;;;;;;7.05;5.00;;;16.50;58.10;;;;;;4973427;28;20057;-76
2022/06/03 08:37:56;;;;;;;9.05;5.30;;;16.40;57.70;;;;;;4973377;28;20038;-76
2022/06/03 08:40:36;;;;;;;9.18;5.10;;;16.30;58.00;;;;;;4973463;28;20047;-76
2022/06/03 08:43:26;;;;;;;5.45;4.85;;;16.30;58.30;;;;;;4956529;28;20105;-76
2022/06/03 08:46:18;;;;;;;6.13;4.68;;;16.30;58.40;;;;;;4972073;28;20062;-75
2022/06/03 08:48:50;;;;;;;6.03;4.88;;;16.50;58.00;;;;;;4973393;28;20538;-75
2022/06/03 08:51:26;;;;;;;8.60;5.45;;;16.70;57.60;;;;;;4974795;28;20047;-76
2022/06/03 08:54:17;;;;;;;7.85;5.70;;;16.80;57.50;;;;;;4971109;28;20055;-76
2022/06/03 08:56:48;;;;;;;6.78;5.60;;;17.00;57.40;;;;;;4971536;28;20054;-76
2022/06/03 08:59:18;;;;;;;8.65;6.10;;;17.10;57.00;;;;;;4972206;28;20417;-76
2022/06/03 09:01:55;;;;;;;7.90;6.20;;;17.20;56.80;;;;;;4973408;28;20401;-75
2022/06/03 09:04:25;;;;;;;7.15;5.65;;;17.30;56.70;;;;;;4967497;28;20046;-77
2022/06/03 09:07:06;;;;;;;6.80;5.72;;;17.40;56.50;;;;;;4954747;28;20519;-76
2022/06/03 09:09:53;;;;;;;7.65;5.35;;;17.60;56.50;;;;;;4957737;28;20062;-76
2022/06/03 09:12:23;;;;;;;5.35;4.82;;;17.80;55.70;;;;;;4958155;28;20047;-77
2022/06/03 09:14:52;;;;;;;8.13;5.88;;;17.80;54.90;;;;;;4973672;28;20059;-75
2022/06/03 09:17:53;;;;;;;9.95;5.50;;;17.90;54.70;;;;;;4970918;28;20062;-78
2022/06/03 09:20:29;;;;;;;7.25;5.57;;;17.90;54.00;;;;;;4896680;29;20052;-81
2022/06/03 09:23:09;;;;;;;6.40;5.72;;;18.00;54.20;;;;;;4879490;29;20415;-77
2022/06/03 09:25:52;;;;;;;6.50;4.80;;;18.10;54.20;;;;;;4879086;29;20048;-77
2022/06/03 09:28:36;;;;;;;5.85;4.82;;;18.10;53.50;;;;;;4883770;29;20048;-77
2022/06/03 09:31:07;;;;;;;5.43;4.43;;;18.20;53.40;;;;;;4880360;29;20057;-77
2022/06/03 09:33:37;;;;;;;7.80;4.65;;;18.30;53.20;;;;;;4880166;29;20479;-78
2022/06/03 09:36:14;;;;;;;7.63;5.07;;;18.40;53.40;;;;;;4895858;29;20060;-78
2022/06/03 09:38:49;;;;;;;5.43;4.47;;;18.50;53.00;;;;;;4893810;29;20551;-77
2022/06/03 09:41:21;;;;;;;4.18;3.78;;;18.50;52.70;;;;;;4892663;29;20672;-77
2022/06/03 09:43:53;;;;;;;5.40;3.63;;;18.60;52.00;;;;;;4895480;29;20083;-76
2022/06/03 09:46:24;;;;;;;3.72;3.33;;;18.70;51.40;;;;;;4891664;29;20064;-77
2022/06/03 09:48:52;;;;;;;6.38;2.75;;;18.80;50.50;;;;;;4895708;29;20055;-77
2022/06/03 09:54:12;;;;;;;5.30;3.83;;;19.00;48.50;;;;;;4897400;29;20056;-76
2022/06/03 09:56:41;;;;;;;4.35;3.20;;;19.20;47.80;;;;;;4947165;28;20042;-76
2022/06/03 09:59:10;;;;;;;4.95;3.42;;;19.40;46.80;;;;;;4941027;28;20058;-76
2022/06/03 10:01:38;;;;;;;2.92;2.40;;;19.60;46.70;;;;;;4972587;28;20051;-76
2022/06/03 10:04:07;;;;;;;22.55;12.52;;;19.80;45.60;;;;;;4972858;28;20070;-77
2022/06/03 10:06:46;;;;;;;4.40;2.90;;;19.90;44.60;;;;;;4972204;28;20412;-77
2022/06/03 10:17:52;;;;;;;4.68;2.30;;;20.70;43.10;;;;;;4955260;28;20047;-76
2022/06/03 10:20:20;;;;;;;2.20;1.80;;;20.80;42.90;;;;;;4971199;28;20439;-76
2022/06/03 10:22:49;;;;;;;2.35;2.00;;;20.90;41.20;;;;;;4953228;28;20058;-76
2022/06/03 10:25:17;;;;;;;1.95;1.75;;;20.90;41.50;;;;;;4970806;28;20119;-77
2022/06/03 10:27:45;;;;;;;3.10;1.90;;;20.90;41.50;;;;;;4973628;28;20050;-76
2022/06/03 10:30:23;;;;;;;2.92;1.90;;;21.00;41.40;;;;;;4970990;28;20058;-77
2022/06/03 10:32:51;;;;;;;3.00;2.10;;;21.00;40.90;;;;;;4969917;28;20050;-75
2022/06/03 10:35:25;;;;;;;2.67;2.10;;;21.10;41.00;;;;;;4971999;28;20384;-72
2022/06/03 10:38:03;;;;;;;2.40;1.80;;;21.10;41.50;;;;;;4966348;28;20042;-74
2022/06/03 10:40:34;;;;;;;4.97;1.77;;;21.30;41.50;;;;;;4970620;28;20045;-76
2022/06/03 10:43:03;;;;;;;2.22;1.60;;;21.40;41.40;;;;;;4971591;28;20053;-78
2022/06/03 10:45:37;;;;;;;3.60;1.92;;;21.50;39.70;;;;;;4971519;28;20050;-75
2022/06/03 10:48:29;;;;;;;;;;;21.50;39.10;;;;;;4971953;28;20515;-78
2022/06/03 11:02:46;;;;;;;2.60;2.20;;;21.90;39.40;;;;;;4960098;28;20047;-77
2022/06/03 11:05:25;;;;;;;2.85;1.98;;;22.00;39.60;;;;;;4973555;28;20464;-77
2022/06/03 11:08:05;;;;;;;1.95;1.65;;;22.00;40.00;;;;;;4970870;28;20050;-77
2022/06/03 11:10:44;;;;;;;3.28;2.10;;;22.20;39.20;;;;;;4973026;28;20065;-77
2022/06/03 11:13:24;;;;;;;4.72;2.05;;;22.20;39.10;;;;;;4973806;28;20420;-77
2022/06/03 11:15:52;;;;;;;3.97;1.70;;;22.30;38.80;;;;;;4973002;28;20058;-77
2022/06/03 11:18:33;;;;;;;3.00;2.35;;;22.30;39.60;;;;;;4973488;28;20050;-77
2022/06/03 11:21:23;;;;;;;3.90;1.70;;;22.40;40.10;;;;;;4973211;28;20057;-77
2022/06/03 11:23:55;;;;;;;2.55;1.35;;;22.60;40.30;;;;;;4940680;28;20400;-77
2022/06/03 11:26:31;;;;;;;3.25;2.30;;;22.80;39.00;;;;;;4955931;28;20158;-77
2022/06/03 11:29:05;;;;;;;1.65;1.33;;;22.90;38.10;;;;;;4972760;28;20047;-77
2022/06/03 11:31:46;;;;;;;2.28;1.50;;;22.80;38.10;;;;;;4958710;28;20397;-77
2022/06/03 11:34:18;;;;;;;1.52;1.42;;;22.90;38.20;;;;;;4951423;28;20047;-78
2022/06/03 11:36:54;;;;;;;1.63;1.52;;;23.20;37.80;;;;;;4955569;28;20062;-77
2022/06/03 11:39:25;;;;;;;4.53;1.70;;;23.40;37.50;;;;;;4972376;28;20049;-77
2022/06/03 11:42:35;;;;;;;3.08;1.80;;;23.70;37.50;;;;;;4971719;28;20045;-77
2022/06/03 11:45:09;;;;;;;1.30;1.02;;;23.90;37.10;;;;;;4952198;28;20600;-77
2022/06/03 11:47:49;;;;;;;9.13;2.33;;;24.10;36.80;;;;;;4972691;28;20038;-77
2022/06/03 11:50:20;;;;;;;4.80;1.85;;;24.40;36.40;;;;;;4972969;28;20101;-77
2022/06/03 11:52:53;;;;;;;2.20;1.70;;;24.40;36.70;;;;;;4974421;28;20054;-79
2022/06/03 11:55:23;;;;;;;4.43;1.60;;;24.40;36.80;;;;;;4978949;28;20050;-77
2022/06/03 11:58:01;;;;;;;;;;;24.30;36.50;;;;;;4978663;28;20053;-78
2022/06/03 12:00:34;;;;;;;1.75;1.65;;;24.30;35.80;;;;;;4978102;28;20404;-78
2022/06/03 12:04:01;;;;;;;2.13;1.58;;;24.30;35.50;;;;;;4978266;28;20489;-76
2022/06/03 12:07:05;;;;;;;3.30;1.50;;;24.50;36.20;;;;;;4902628;29;20040;-77
2022/06/03 12:09:57;;;;;;;4.13;1.90;;;24.80;35.50;;;;;;4917336;29;20044;-77
2022/06/03 12:15:28;;;;;;;3.50;1.80;;;25.00;35.10;;;;;;4915774;29;20047;-77
2022/06/03 12:18:11;;;;;;;3.20;2.20;;;25.00;35.80;;;;;;4918753;29;20055;-78
2022/06/03 12:20:48;;;;;;;2.70;2.05;;;24.90;35.80;;;;;;4918464;29;20048;-78
2022/06/03 12:23:16;;;;;;;3.97;2.17;;;24.70;36.20;;;;;;4914534;29;20479;-78
2022/06/03 12:25:51;;;;;;;2.38;1.80;;;24.50;36.60;;;;;;4917012;29;20107;-79
2022/06/03 12:28:48;;;;;;;5.97;2.05;;;24.50;36.20;;;;;;4912439;29;20056;-78
2022/06/03 12:31:21;;;;;;;3.28;1.70;;;24.50;36.20;;;;;;4913468;29;20506;-78
2022/06/03 12:34:03;;;;;;;4.68;2.30;;;24.50;36.10;;;;;;4917704;29;20047;-78
2022/06/03 12:36:52;;;;;;;4.10;2.40;;;24.60;35.70;;;;;;4934973;28;20066;-78
2022/06/03 12:39:31;;;;;;;3.40;2.08;;;24.60;36.30;;;;;;4977012;28;20069;-78
2022/06/03 12:42:07;;;;;;;4.03;2.10;;;24.60;36.40;;;;;;4976555;28;20061;-78
2022/06/03 12:44:48;;;;;;;3.70;2.10;;;24.40;36.40;;;;;;4977652;28;20516;-78
2022/06/03 12:47:18;;;;;;;2.88;2.08;;;24.50;36.50;;;;;;4974588;28;20058;-78
2022/06/03 12:49:49;;;;;;;3.45;2.50;;;24.80;36.60;;;;;;4960552;28;20420;-78
2022/06/03 12:52:25;;;;;;;3.00;2.08;;;25.00;35.50;;;;;;4975143;28;20047;-78
2022/06/03 12:55:05;;;;;;;3.45;1.88;;;24.80;35.40;;;;;;4968383;28;20046;-78
2022/06/03 12:57:44;;;;;;;3.95;1.92;;;24.40;35.20;;;;;;4975670;28;20050;-78
2022/06/03 13:00:18;;;;;;;3.35;1.70;;;24.30;36.00;;;;;;4975392;28;20043;-77
2022/06/03 13:03:15;;;;;;;2.50;2.00;;;24.30;35.90;;;;;;4978588;28;20062;-77
2022/06/03 13:05:53;;;;;;;3.58;2.10;;;24.30;35.50;;;;;;4914976;29;20522;-77
2022/06/03 13:08:26;;;;;;;4.47;2.22;;;24.30;35.80;;;;;;4916055;29;20650;-78
2022/06/03 13:10:54;;;;;;;;;;;24.30;35.70;;;;;;4916445;29;20383;-77
2022/06/03 13:13:33;;;;;;;3.35;2.33;;;24.20;36.20;;;;;;4916010;29;19942;-77
2022/06/03 13:16:16;;;;;;;3.70;2.35;;;24.00;36.40;;;;;;4916050;29;20560;-76
2022/06/03 13:18:48;;;;;;;4.30;2.20;;;24.10;36.40;;;;;;4916143;29;20056;-77
2022/06/03 13:21:18;;;;;;;5.10;2.70;;;24.40;36.70;;;;;;4916259;29;20059;-76
2022/06/03 13:23:55;;;;;;;3.50;2.72;;;24.60;36.70;;;;;;4915833;29;20052;-77
2022/06/03 13:26:22;;;;;;;2.60;2.40;;;25.00;36.50;;;;;;4915480;29;20045;-77
2022/06/03 13:29:01;;;;;;;3.45;2.60;;;25.20;36.10;;;;;;4915626;29;20056;-77
2022/06/03 13:31:41;;;;;;;6.13;2.75;;;25.20;36.30;;;;;;4915900;29;20056;-77
2022/06/03 13:34:08;;;;;;;3.35;2.90;;;25.20;36.20;;;;;;4917420;29;20060;-76
2022/06/03 13:36:49;;;;;;;4.75;3.00;;;25.30;36.30;;;;;;4916885;29;20052;-76
2022/06/03 13:39:28;;;;;;;3.38;2.78;;;25.50;36.20;;;;;;4915724;29;20402;-76
2022/06/03 13:45:03;;;;;;;5.68;3.15;;;25.20;36.70;;;;;;4975254;28;20054;-77
2022/06/03 13:47:36;;;;;;;4.88;3.30;;;25.30;37.00;;;;;;4975401;28;20058;-77
2022/06/03 13:50:13;;;;;;;3.97;3.50;;;25.50;36.30;;;;;;4958065;28;20400;-76
2022/06/03 13:53:08;;;;;;;6.65;3.60;;;25.10;36.50;;;;;;4974553;28;20062;-77
2022/06/03 13:55:41;;;;;;;7.78;3.05;;;24.50;37.30;;;;;;4957766;28;20047;-76
2022/06/03 13:58:16;;;;;;;5.20;3.92;;;23.80;38.20;;;;;;4975042;28;20051;-78
2022/06/03 14:00:50;;;;;;;5.70;3.70;;;23.40;39.50;;;;;;4957818;28;20050;-77
2022/06/03 14:03:45;;;;;;;6.68;3.45;;;23.50;40.40;;;;;;4957614;28;20050;-77
2022/06/03 14:06:27;;;;;;;3.88;2.80;;;24.00;39.90;;;;;;4975191;28;20043;-78
2022/06/03 14:09:03;;;;;;;5.35;3.10;;;25.30;39.30;;;;;;4974960;28;20432;-77
2022/06/03 14:12:03;;;;;;;6.60;3.78;;;26.20;37.70;;;;;;4957486;28;20047;-78
2022/06/03 14:14:58;;;;;;;4.38;3.28;;;26.70;36.30;;;;;;4952425;28;20055;-78
2022/06/03 14:17:58;;;;;;;4.50;3.05;;;27.00;34.70;;;;;;4974273;28;20043;-77
2022/06/03 14:20:32;;;;;;;5.43;3.55;;;27.30;34.40;;;;;;4974726;28;20050;-76
2022/06/03 14:23:41;;;;;;;5.03;3.30;;;27.50;34.30;;;;;;4974590;28;20377;-77
2022/06/03 14:26:16;;;;;;;7.22;3.38;;;27.90;33.40;;;;;;4974575;28;20055;-78
2022/06/03 14:28:52;;;;;;;4.32;2.90;;;27.90;33.20;;;;;;4974313;28;20065;-77
2022/06/03 14:31:35;;;;;;;4.28;2.63;;;27.50;33.80;;;;;;4974437;28;20072;-77
2022/06/03 14:34:13;;;;;;;5.00;2.90;;;26.80;34.30;;;;;;4974356;28;20047;-77
2022/06/03 14:36:42;;;;;;;4.35;2.65;;;26.00;35.60;;;;;;4974333;28;20051;-77
2022/06/03 14:39:31;;;;;;;7.18;2.80;;;26.30;36.40;;;;;;4974209;28;20047;-77
2022/06/03 14:42:04;;;;;;;6.80;2.60;;;27.20;35.70;;;;;;4974227;28;20051;-77
2022/06/03 14:44:33;;;;;;;3.85;2.90;;;27.40;35.00;;;;;;4974277;28;20065;-78
2022/06/03 14:47:32;;;;;;;5.53;2.80;;;26.90;34.70;;;;;;4973956;28;20047;-77